FW1232 Weather Reports


Display with metric or nautical units.
time (UTC)temp
F
wind
direction
speed
MPH
gust
MPH
rain 1hr
in
rain 24hr
in
rain mn
in
humidity
%
barometer
mb
20210801041637 75 60 2.0 4.0 0.00 0.12 0.00 93 1012.7
20210801040213 74 113 3.0 6.0 0.00 0.12 0.00 94 1012.6
20210801034656 74 71 3.0 6.0 0.00 0.12 0.12 93 1012.5
20210801033142 74 81 3.0 7.0 0.00 0.12 0.12 92 1012.7
20210801031624 74 43 2.0 7.0 0.00 0.12 0.12 94 1012.9
20210801030319 74 67 2.0 4.0 0.00 0.12 0.12 93 1013.1
20210801024648 74 80 2.0 4.0 0.00 0.12 0.12 92 1013.3
20210801023240 75 126 1.0 4.0 0.12 0.12 0.12 91 1013.6
20210801021725 75 61 4.0 8.0 0.12 0.12 0.12 92 1013.6
20210801020226 75 10 7.0 11.0 0.12 0.12 0.12 90 1013.7
20210801014640 75 5 7.0 14.0 0.12 0.12 0.12 88 1013.8
20210801013222 79 311 3.0 6.0 0.00 0.00 0.00 82 1013.8
20210801011654 79 86 2.0 4.0 0.00 0.00 0.00 79 1013.4
20210801010224 80 75 1.0 3.0 0.00 0.00 0.00 80 1013.4
20210801004642 80 317 0.0 2.0 0.00 0.00 0.00 77 1013.4
20210801003206 80 317 1.0 4.0 0.00 0.00 0.00 75 1013.5
20210801001657 81 317 2.0 4.0 0.00 0.00 0.00 75 1013.5
20210801000232 81 304 5.0 9.0 0.00 0.00 0.00 74 1013.7
20210731234632 81 305 5.0 7.0 0.00 0.00 0.00 72 1013.7
20210731233143 82 267 2.0 4.0 0.00 0.00 0.00 71 1013.4
20210731231712 83 255 3.0 7.0 0.00 0.00 0.00 70 1013.4
20210731230220 83 0 1.0 4.0 0.00 0.00 0.00 67 1013.5
20210731224638 83 151 1.0 4.0 0.00 0.00 0.00 69 1013.1
20210731223142 84 242 1.0 5.0 0.00 0.00 0.00 64 1013.3
20210731221632 83 165 1.0 5.0 0.00 0.00 0.00 67 1013.4
20210731220120 83 128 2.0 5.0 0.00 0.00 0.00 68 1013.2
20210731214700 83 143 2.0 5.0 0.00 0.00 0.00 64 1013.5
20210731213331 83 339 1.0 4.0 0.00 0.00 0.00 64 1013.7
20210731211643 83 339 1.0 6.0 0.00 0.00 0.00 63 1013.9
20210731210141 83 346 2.0 5.0 0.00 0.00 0.00 63 1014.3
20210731204659 84 19 3.0 8.0 0.00 0.00 0.00 63 1014.8
20210731203130 87 255 2.0 8.0 0.00 0.00 0.00 58 1015.2
20210731201657 85 288 4.0 9.0 0.00 0.00 0.00 62 1015.5
20210731200158 85 248 1.0 9.0 0.00 0.00 0.00 60 1015.3
20210731194705 85 285 3.0 10.0 0.00 0.00 0.00 61 1015.7
20210731193317 84 248 8.0 12.0 0.00 0.00 0.00 61 1015.7
20210731191715 85 252 6.0 10.0 0.00 0.00 0.00 61 1016.0
20210731190230 85 246 4.0 12.0 0.00 0.00 0.00 59 1016.2
20210731184857 86 254 4.0 13.0 0.00 0.00 0.00 60 1016.5
20210731183242 86 242 2.0 9.0 0.00 0.00 0.00 60 1016.3
20210731181645 84 277 6.0 11.0 0.00 0.00 0.00 60 1016.6
20210731180151 84 292 4.0 11.0 0.00 0.00 0.00 60 1016.5
20210731174609 85 200 5.0 11.0 0.00 0.00 0.00 61 1016.6
20210731173113 84 233 5.0 15.0 0.00 0.00 0.00 63 1016.6
20210731171629 84 256 3.0 9.0 0.00 0.00 0.00 65 1016.4
20210731170209 84 242 1.0 9.0 0.00 0.00 0.00 65 1016.2
20210731164718 81 277 1.0 7.0 0.00 0.00 0.00 71 1016.4
20210731163151 82 238 1.0 5.0 0.00 0.00 0.00 68 1016.2
20210731161657 81 279 2.0 4.0 0.00 0.00 0.00 74 1016.1
20210731160217 80 267 2.0 4.0 0.00 0.00 0.00 75 1016.2
20210731154625 78 317 1.0 4.0 0.00 0.00 0.00 81 1016.2
20210731153150 77 317 1.0 3.0 0.00 0.00 0.00 82 1016.2
20210731151705 76 318 0.0 4.0 0.00 0.00 0.00 84 1016.1
20210731150204 75 0 0.0 3.0 0.00 0.00 0.00 86 1016.3
20210731144737 74 337 2.0 4.0 0.00 0.00 0.00 89 1016.4
20210731143216 74 355 2.0 3.0 0.00 0.00 0.00 89 1016.3
20210731141759 73 9 3.0 5.0 0.00 0.00 0.00 91 1016.5
20210731140207 73 38 3.0 5.0 0.00 0.00 0.00 90 1016.4
20210731134621 73 0 1.0 4.0 0.00 0.00 0.00 90 1016.4
20210731133155 72 88 1.0 4.0 0.00 0.00 0.00 92 1016.8
20210731131609 71 28 2.0 4.0 0.00 0.00 0.00 94 1017.0
20210731130111 70 0 0.0 0.0 0.00 0.00 0.00 97 1016.8
20210731124647 70 0 1.0 4.0 0.00 0.00 0.00 98 1016.8
20210731123107 69 184 1.0 4.0 0.00 0.00 0.00 98 1016.7
20210731121631 69 0 0.0 0.0 0.00 0.00 0.00 98 1016.4
20210731120143 69 163 1.0 5.0 0.00 0.00 0.00 97 1016.2
20210731114616 69 140 2.0 6.0 0.00 0.00 0.00 97 1016.3
20210731113307 69 132 3.0 5.0 0.00 0.00 0.00 97 1016.2
20210731111629 69 0 2.0 5.0 0.00 0.00 0.00 97 1016.5
20210731110143 69 45 3.0 5.0 0.00 0.00 0.00 97 1016.5
20210731104652 69 113 2.0 4.0 0.00 0.00 0.00 97 1016.0
20210731103128 69 113 1.0 4.0 0.00 0.00 0.00 96 1016.0
20210731101731 70 112 1.0 4.0 0.00 0.00 0.00 96 1016.2
20210731100150 70 111 2.0 4.0 0.00 0.00 0.00 96 1016.1
20210731094610 70 115 3.0 5.0 0.00 1.02 0.00 94 1016.2
20210731093250 71 60 3.0 6.0 0.00 1.02 0.00 93 1016.0
20210731091631 71 110 2.0 6.0 0.00 1.02 0.00 92 1016.0
20210731090123 71 57 3.0 6.0 0.00 1.02 0.00 91 1015.9
20210731084759 71 355 5.0 8.0 0.00 1.56 0.00 92 1016.1
20210731083206 70 0 0.0 0.0 0.00 1.56 0.00 96 1016.0
20210731081739 70 0 0.0 0.0 0.00 1.56 0.00 96 1016.0
20210731080206 70 0 2.0 3.0 0.00 1.56 0.00 96 1015.5
20210731074700 70 146 2.0 3.0 0.00 1.56 0.00 96 1015.5
20210731073205 71 0 1.0 4.0 0.00 1.56 0.00 96 1015.5
20210731071744 71 0 0.0 0.0 0.00 1.56 0.00 96 1015.6
20210731070218 71 0 0.0 4.0 0.00 1.56 0.00 96 1015.7
20210731064708 71 159 2.0 5.0 0.00 1.56 0.00 95 1015.8
20210731063212 71 132 2.0 4.0 0.00 1.56 0.00 95 1015.7
20210731061657 71 126 2.0 4.0 0.00 1.56 0.00 95 1016.0
20210731060121 71 142 1.0 4.0 0.00 1.56 0.00 95 1016.0
20210731054834 71 0 0.0 3.0 0.00 1.56 0.00 96 1016.3
20210731053119 71 148 2.0 4.0 0.00 1.56 0.00 94 1016.4
20210731051644 72 113 1.0 3.0 0.00 1.56 0.00 95 1016.5
20210731050121 73 101 2.0 3.0 0.00 1.56 0.00 93 1016.6
20210731044614 73 0 1.0 4.0 0.00 1.56 0.00 93 1016.9
20210731043139 73 0 0.0 0.0 0.00 1.56 0.00 92 1016.9